Impacts TAF Board
For situational awareness. Not to be used for flight planning purposes.
IDs:

KMCO - Orlando Intl, FL, US

Issued at 1742 UTC 20 Sep 2018
Updated at 2040 UTC 20 Sep 2018
Potential Impact None Slight Moderate High
Time2014Z 20/21Z 20/22Z 20/23Z 21/00Z 21/01Z 21/02Z 21/03Z 21/04Z 21/05Z 21/06Z 21/07Z 21/08Z 21/09Z>>
Type OBS PRVL PRVL PRVL PRVL PRVL PRVL PRVL PRVL PRVL PRVL PRVL PRVL PRVL
VIS 10 >6 >6 >6 >6 >6 >6 >6 >6 >6 >6 >6 >6 >6
CIG -- -- -- -- -- -- -- -- -- -- -- -- -- --
Cover SCT SCT SCT SCT FEW FEW FEW FEW FEW FEW FEW FEW FEW FEW
FltCat VFR VFR VFR VFR VFR VFR VFR VFR VFR VFR VFR VFR VFR VFR
WX TS VCTS VCTS VCTS -- -- -- -- -- -- -- -- -- --
WDir 80 70 70 70 60 60 60 60 60 60 60 60 60 60
WSpd 9 10 10 10 4 4 4 4 4 4 4 4 4 4
WGst -- -- -- -- -- -- -- -- -- -- -- -- -- --
Raw TAF
KMCO 201742Z 2018/2124 07005KT P6SM SCT035
  FM201900 07010KT P6SM VCTS SCT025CB SCT250
  FM210000 06004KT P6SM FEW045 FEW080
  FM211500 07010KT P6SM SCT035


Raw METAR
KMCO 202014Z 08009KT 10SM TS SCT043CB SCT090 SCT250 32/23 A2999 RMK AO2 LTG DSNT SW AND W TSE07B14 OCNL LTGCG SW-W TS SW-W MOV SW VCSH SW-W T03170228
KMCO 201953Z 10010KT 070V130 10SM SCT050CB SCT090 SCT250 32/23 A3000 RMK AO2 RAB13E25 SLP156 CB SW MOV SW P0000 T03220228
KMCO 201853Z 06005KT 10SM SCT050TCU SCT090 SCT250 33/23 A3001 RMK AO2 RAB17E29 SLP161 TCU E-S P0000 T03330233
KMCO 201753Z 36006KT 10SM SCT047CB SCT250 32/23 A3004 RMK AO2 LTG DSNT NE SLP169 CB SW STNRY CB DSNT NE-E W T03220228 10339 20250 58014

METAR Board
Radar Display
Forecast Discussion
For situational awareness. Not to be used for flight planning purposes.